Tiempo atmosférico en la estación meteorológica de Morón De Almazán , Soria (978 m.)



Fecha
DESCASC
Temp. máxima en grados centígrados (hora)
DESCASC
Temp. mínima en grados centígrados (hora)
DESCASC
Temp. media en grados centígrados
DESCASC
Racha de viento máxima en m/sg (hora)
DESCASC
Velocidad máxima media en intervalos de 10 minutos(hora)
DESCASC
Precipitaciones diarias en mm
DESCASC
Precipitaciones de 00:00 a 06:00 en mm
DESCASC
Precipitaciones de 06:00 a 12:00 en mm
DESCASC
Precipitaciones de 12:00 a 18:00 en mm
DESCASC
Precipitaciones de 18:00 a 24:00 en mm
DESCASC
18-04-2019 12.8 (00:00) 6.5 (23:30) 9.7 9.72 (13:40) 6.39 (13:40) 36.8 0 12.6 10.4 13.8
17-04-2019 20.8 (16:00) 6.8 (07:00) 13.8 10.83 (19:30) 7.78 (19:20) 0 0 0 0 0
16-04-2019 18.6 (17:00) 3.3 (00:00) 11 6.94 (21:30) 4.72 (21:30) 0 0 0 0 0
15-04-2019 20.7 (18:20) 4.8 (00:00) 12.8 14.72 (20:00) 9.72 (20:00) 0.8 0 0 0.6 0.2
14-04-2019 19.5 (17:10) 0.9 (00:00) 10.2 12.22 (13:40) 7.78 (13:50) 0 0 0 0 0
13-04-2019 19.2 (16:40) -5.6 (-00:0) 6.8 8.89 (11:50) 6.39 (11:40) 0 0 0 0 0
12-04-2019 15.9 (16:30) -3.1 (-00:0) 6.4 9.72 (00:40) 7.5 (00:50) 0 0 0 0 0
11-04-2019 12 (16:30) -1.6 (-00:0) 5.2 11.39 (13:10) 7.5 (19:00) 0 0 0 0 0
10-04-2019 9.7 (13:50) 2.3 (00:00) 6 11.94 (22:00) 8.61 (22:00) 5.2 1 0.2 4 0
09-04-2019 10.6 (14:40) 0.5 (00:00) 5.6 16.11 (17:50) 9.72 (18:00) 7.4 0.2 0 5.4 1.8
08-04-2019 13.3 (18:00) 3.9 (00:00) 8.6 11.67 (16:30) 8.06 (16:30) 3 0.6 1.4 0.4 0.6
07-04-2019 10.2 (18:20) 0.6 (00:00) 5.4 13.06 (11:10) 8.61 (11:00) 0.4 0.2 0 0 0.2
06-04-2019 9 (17:50) -0.1 (00:00) 4.4 15.28 (17:00) 10.28 (17:10) 4 0.6 1.8 0 1.6
05-04-2019 9.1 (16:10) 0.1 (00:00) 4.6 11.67 (04:30) 7.22 (06:20) 1.6 0 0 0 1.6
04-04-2019 11.8 (16:30) -5.6 (-00:0) 3.1 11.94 (18:30) 8.06 (18:40) 0 0 0 0 0
03-04-2019 10.8 (17:10) 0.4 (23:59) 5.6 14.72 (14:30) 10.56 (14:30) 0.2 0.2 0 0 0
02-04-2019 16.1 (14:30) 0.1 (00:00) 8.1 12.22 (15:20) 8.61 (18:50) 3 0 0.2 0 2.8
01-04-2019 14.7 (17:30) 4.7 (00:00) 9.7 7.5 (17:40) 5 (19:50) 0.8 0.2 0 0.4 0.2
31-03-2019 11.9 (13:00) -0.8 (-00:0) 5.5 7.22 (12:10) 5.28 (17:00) 2 0 0 0.2 1.8
30-03-2019 17.7 (16:50) -3.9 (-00:0) 6.9 7.5 (19:40) 4.72 (19:40) 0 0 0 0 0
29-03-2019 18.7 (16:50) -3.2 (-00:0) 7.8 9.72 (18:50) 6.39 (19:00) 0 0 0 0 0
28-03-2019 18.7 (16:00) -4.6 (-00:0) 7.1 9.72 (00:10) 6.94 (00:10) 0 0 0 0 0
27-03-2019 16.4 (15:40) -6.4 (-00:0) 5 13.33 (23:10) 8.89 (22:50) 0 0 0 0 0
26-03-2019 17.4 (15:30) 0.2 (00:00) 8.8 12.5 (21:00) 7.78 (21:50) 0 0 0 0 0
25-03-2019 16.1 (16:00) -1.5 (-00:0) 7.3 13.06 (17:50) 10.28 (17:50) 0 0 0 0 0
24-03-2019 20.6 (15:20) -3.6 (-00:0) 8.5 8.89 (23:10) 5.83 (23:20) 0 0 0 0 0
23-03-2019 19 (15:40) -4.1 (-00:0) 7.5 9.72 (17:20) 6.11 (16:20) 0 0 0 0 0
22-03-2019 16.6 (16:10) -7 (-00:0) 4.8 8.33 (16:30) 4.72 (13:50) 0 0 0 0 0
21-03-2019 14.8 (15:40) -7.4 (-00:0) 3.7 7.78 (01:00) 5.56 (01:00) 0 0 0 0 0

Gráficas

Temp. máximas Temp. mínimas Temp. medias Precipitaciones Rachas de viento máximas Velocidades máximas media en intervalos de 10 minutos

Datos horarios

Fecha y hora oficial Temperatura (ºC) Velocidad del viento (km/h) Dirección del viento Racha (km/h) Dirección de racha Precipitación (mm) Presión (hPa) Tendencia (hPa) Humedad (%)
2019-04-19 23:00:00 9.4 5 Nordeste 14 Este 0 -- -- 70
2019-04-19 22:00:00 9.8 6 Sudeste 27 Este 0 -- -- 69
2019-04-19 21:00:00 10.5 12 Este 44 Este 0 -- -- 65
2019-04-19 20:00:00 11.4 19 Este 48 Este 0 -- -- 67
2019-04-19 19:00:00 12 28 Este 58 Este 0 -- -- 67
2019-04-19 18:00:00 12.3 40 Este 56 Este 0 -- -- 67
2019-04-19 17:00:00 12.5 37 Este 63 Este 0 -- -- 68
2019-04-19 16:00:00 12.9 43 Este 60 Este 0 -- -- 75
2019-04-19 15:00:00 11.6 32 Este 53 Este 0 -- -- 81
2019-04-19 14:00:00 8.9 30 Este 48 Este 0.2 -- -- 89
2019-04-19 13:00:00 7.7 28 Este 44 Este 0.2 -- -- 97
2019-04-19 12:00:00 7.8 21 Este 34 Este 1 -- -- 96
2019-04-19 11:00:00 7.4 6 Este 16 Este 0.6 -- -- 95
2019-04-19 10:00:00 7.8 11 Este 30 Este 0.8 -- -- 95
2019-04-19 09:00:00 7.3 19 Este 31 Este 1.4 -- -- 96
2019-04-19 08:00:00 7.1 21 Este 34 Este 1.2 -- -- 96
2019-04-19 07:00:00 7.2 26 Este 42 Este 1.4 -- -- 95
2019-04-19 06:00:00 7 19 Este 31 Este 0.6 -- -- 96
2019-04-19 05:00:00 6.5 13 Este 22 Este 0.8 -- -- 97
2019-04-19 04:00:00 6.5 13 Este 23 Este 0.6 -- -- 97
2019-04-19 03:00:00 6.4 12 Este 24 Sudeste 0.6 -- -- 96
2019-04-19 02:00:00 6.5 15 Este 26 Este 0.6 -- -- 96
2019-04-19 01:00:00 6.3 17 Este 24 Este 0.8 -- -- 95
2019-04-19 00:00:00 6.5 16 Este 23 Este 1 -- -- 95
2019-04-18 23:00:00 6.7 9 Este 13 Este 1.2 -- -- 98
2019-04-18 22:00:00 6.7 0 Calma 8 Sur 2.8 -- -- 98
2019-04-18 21:00:00 7.1 5 Oeste 12 Oeste 3.2 -- -- 98
2019-04-18 20:00:00 7.3 6 Oeste 13 Oeste 2.2 -- -- 97
2019-04-18 19:00:00 7.4 9 Oeste 17 Oeste 3.4 -- -- 96
2019-04-18 18:00:00 7.7 6 Sudoeste 15 Sur 4 -- -- 94
2019-04-18 17:00:00 8.4 3 Sudeste 12 Este 4.2 -- -- 94
2019-04-18 16:00:00 8.8 10 Este 24 Este 2 -- -- 90
2019-04-18 15:00:00 9.3 14 Este 32 Este 0.2 -- -- 86
2019-04-18 14:00:00 10.3 18 Este 35 Este 0 -- -- 80
2019-04-18 13:00:00 10.9 8 Este 15 Nordeste 0 -- -- 80
2019-04-18 12:00:00 10.2 8 Este 13 Este 0.2 -- -- 84
2019-04-18 11:00:00 8.5 9 Nordeste 17 Este 2 -- -- 95
2019-04-18 10:00:00 8.2 9 Este 20 Sudeste 3.8 -- -- 96
2019-04-18 09:00:00 8.5 9 Sudeste 27 Sudeste 3.8 -- -- 97
2019-04-18 08:00:00 8.9 10 Sudeste 23 Sur 1.4 -- -- 93
2019-04-18 07:00:00 9.4 3 Sudeste 11 Este 1.4 -- -- 91
2019-04-18 06:00:00 10.8 5 Este 15 Este 0 -- -- 78
2019-04-18 05:00:00 10.9 9 Sudeste 18 Sudeste 0 -- -- 78
2019-04-18 04:00:00 11.7 11 Este 17 Sudeste 0 -- -- 74
2019-04-18 03:00:00 12.1 7 Sudeste 17 Sur 0 -- -- 70
2019-04-18 02:00:00 12.4 10 Sur 19 Sur 0 -- -- 69
2019-04-18 01:00:00 11.9 8 Este 12 Sudeste 0 -- -- 71
2019-04-18 00:00:00 12.8 3 Noroeste 21 Este 0 -- -- 68
2019-04-17 23:00:00 13.8 10 Sudeste 27 Sudeste 0 -- -- 64
2019-04-17 22:00:00 14 12 Sudeste 33 Este 0 -- -- 64
2019-04-17 21:00:00 14.7 20 Este 35 Este 0 -- -- 61
2019-04-17 20:00:00 16 24 Este 39 Este 0 -- -- 56
2019-04-17 19:00:00 18.9 26 Este 37 Este 0 -- -- 50
2019-04-17 18:00:00 20.3 20 Este 36 Este 0 -- -- 44
2019-04-17 17:00:00 20.5 18 Sudeste 32 Sudeste 0 -- -- 40
2019-04-17 16:00:00 20.8 18 Sudeste 37 Este 0 -- -- 41
2019-04-17 15:00:00 19.8 14 Este 36 Este 0 -- -- 44
2019-04-17 14:00:00 17.6 19 Sudeste 32 Este 0 -- -- 49
2019-04-17 13:00:00 15.2 15 Sudeste 27 Este 0 -- -- 57
2019-04-17 12:00:00 13.6 17 Este 27 Este 0 -- -- 63
2019-04-17 11:00:00 13.4 9 Sudeste 24 Este 0 -- -- 66
2019-04-17 10:00:00 9.9 13 Sudeste 23 Este 0 -- -- 79
2019-04-17 09:00:00 7.9 11 Sudeste 22 Este 0 -- -- 87
2019-04-17 08:00:00 7.2 12 Sudeste 24 Este 0 -- -- 89
2019-04-17 07:00:00 6.8 6 Este 22 Este 0 -- -- 90
2019-04-17 06:00:00 7.6 10 Sudeste 23 Este 0 -- -- 87
2019-04-17 05:00:00 7.5 7 Sudeste 18 Este 0 -- -- 87
2019-04-17 04:00:00 8.6 12 Sudeste 22 Sudeste 0 -- -- 78
2019-04-17 03:00:00 8.9 8 Este 18 Este 0 -- -- 75
2019-04-17 02:00:00 9.4 9 Sudeste 21 Este 0 -- -- 72
2019-04-17 01:00:00 9.3 8 Sudeste 16 Este 0 -- -- 68
2019-04-17 00:00:00 9.7 9 Sudeste 21 Este 0 -- -- 67
2019-04-16 23:00:00 10.6 9 Este 22 Este 0 -- -- 64
2019-04-16 22:00:00 12.3 13 Este 25 Este 0 -- -- 58
2019-04-16 21:00:00 13.7 10 Este 19 Este 0 -- -- 51
2019-04-16 20:00:00 16.7 13 Este 24 Este 0 -- -- 42
2019-04-16 19:00:00 17.9 16 Este 24 Este 0 -- -- 39
2019-04-16 18:00:00 18.2 12 Sudeste 22 Sudeste 0 -- -- 39
2019-04-16 17:00:00 18.6 9 Este 21 Sudeste 0 -- -- 41
2019-04-16 16:00:00 17.8 9 Sudeste 23 Este 0 -- -- 38
2019-04-16 15:00:00 16.2 12 Este 20 Este 0 -- -- 44
2019-04-16 14:00:00 14.8 9 Sudeste 14 Sur 0 -- -- 46
2019-04-16 13:00:00 14.2 8 Sur 14 Sur 0 -- -- 54
2019-04-16 12:00:00 13.3 3 Noroeste 13 Oeste 0 -- -- 58
2019-04-16 11:00:00 10.7 4 Oeste 13 Noroeste 0 -- -- 73
2019-04-16 10:00:00 8.1 4 Noroeste 13 Noroeste 0 -- -- 85
2019-04-16 09:00:00 6.8 10 Noroeste 13 Norte 0 -- -- 90
2019-04-16 08:00:00 5.2 5 Norte 11 Oeste 0 -- -- 96
2019-04-16 07:00:00 5.3 4 Oeste 8 Oeste 0 -- -- 92
2019-04-16 06:00:00 5.1 0 Calma 4 Sudoeste 0 -- -- 94
2019-04-16 05:00:00 4.7 0 Calma 5 Noroeste 0 -- -- 93
2019-04-16 04:00:00 4.4 4 Noroeste 7 Noroeste 0 -- -- 94
2019-04-16 03:00:00 3.5 2 Este 13 Oeste 0 -- -- 92
2019-04-16 02:00:00 4.5 8 Oeste 16 Oeste 0 -- -- 89
2019-04-16 01:00:00 5.5 5 Noroeste 13 Oeste 0 -- -- 87
2019-04-16 00:00:00 9.3 9 Oeste 26 Oeste 0 -- -- 73
2019-04-15 23:00:00 9.8 18 Oeste 30 Oeste 0 -- -- 75
2019-04-15 22:00:00 11.1 23 Oeste 40 Noroeste 0.2 -- -- 74
2019-04-15 21:00:00 12.5 30 Oeste 48 Oeste 0 -- -- 71
2019-04-15 20:00:00 15.7 35 Oeste 53 Oeste 0 -- -- 54
2019-04-15 19:00:00 20.1 24 Sudoeste 43 Sudoeste 0 -- -- 41
2019-04-15 18:00:00 19.2 13 Sudoeste 45 Sudoeste 0.6 -- -- 59
2019-04-15 17:00:00 18.2 21 Sudoeste 48 Sudoeste 0 -- -- 57
2019-04-15 16:00:00 19.6 21 Sur 40 Sudoeste 0 -- -- 50
2019-04-15 15:00:00 19.4 21 Sur 36 Sudoeste 0 -- -- 55
2019-04-15 14:00:00 19 23 Sudoeste 38 Sur 0 -- -- 52
2019-04-15 13:00:00 18.9 24 Sur 35 Sur 0 -- -- 54
2019-04-15 12:00:00 16.8 19 Sur 31 Sur 0 -- -- 64
2019-04-15 11:00:00 16.6 8 Sudeste 17 Sur 0 -- -- 64
2019-04-15 10:00:00 14.1 4 Este 14 Este 0 -- -- 72
2019-04-15 09:00:00 11.3 2 Sudeste 8 Sudeste 0 -- -- 81
2019-04-15 08:00:00 7.3 0 Calma 8 Este 0 -- -- 92
2019-04-15 07:00:00 5.6 5 Sudeste 9 Este 0 -- -- 94
2019-04-15 06:00:00 4.9 4 Este 5 Este 0 -- -- 95
2019-04-15 05:00:00 5.5 0 Calma 6 Nordeste 0 -- -- 93
2019-04-15 04:00:00 5.7 0 Calma 9 Nordeste 0 -- -- 92
2019-04-15 03:00:00 6.1 3 Sur 10 Este 0 -- -- 92
2019-04-15 02:00:00 5.8 3 Este 6 Este 0 -- -- 92
2019-04-15 01:00:00 6.3 4 Este 6 Nordeste 0 -- -- 91
2019-04-15 00:00:00 8.1 3 Este 8 Este 0 -- -- 87
2019-04-14 23:00:00 9.3 2 Sudeste 8 Nordeste 0 -- -- 81
2019-04-14 22:00:00 11.9 4 Noroeste 8 Oeste 0 -- -- 71
2019-04-14 21:00:00 13.5 7 Oeste 15 Oeste 0 -- -- 62
2019-04-14 20:00:00 17 13 Oeste 26 Oeste 0 -- -- 51
2019-04-14 19:00:00 19 14 Oeste 27 Oeste 0 -- -- 46
2019-04-14 18:00:00 19.1 18 Oeste 34 Oeste 0 -- -- 47
2019-04-14 17:00:00 19 22 Oeste 37 Oeste 0 -- -- 49
2019-04-14 16:00:00 18.7 24 Oeste 38 Oeste 0 -- -- 52
2019-04-14 15:00:00 17.9 26 Oeste 38 Oeste 0 -- -- 54
2019-04-14 14:00:00 16.8 26 Oeste 44 Oeste 0 -- -- 58
2019-04-14 13:00:00 16.3 26 Oeste 39 Oeste 0 -- -- 61
2019-04-14 12:00:00 15.2 24 Oeste 40 Oeste 0 -- -- 66
2019-04-14 11:00:00 13.6 25 Oeste 33 Oeste 0 -- -- 71
2019-04-14 10:00:00 11 17 Oeste 26 Oeste 0 -- -- 75
2019-04-14 09:00:00 9 13 Noroeste 20 Oeste 0 -- -- 76
2019-04-14 08:00:00 6.4 8 Oeste 13 Oeste 0 -- -- 77
2019-04-14 07:00:00 3.8 0 Calma 9 Oeste 0 -- -- 73
2019-04-14 06:00:00 2.4 2 Oeste 6 Oeste 0 -- -- 83
2019-04-14 05:00:00 1.5 0 Calma 4 Nordeste 0 -- -- 88
2019-04-14 04:00:00 0.9 0 Calma 5 Nordeste 0 -- -- 86
2019-04-14 03:00:00 0.9 3 Este 7 Nordeste 0 -- -- 86
2019-04-14 02:00:00 1.1 4 Nordeste 6 Nordeste 0 -- -- 83
2019-04-14 01:00:00 1.4 4 Este 7 Nordeste 0 -- -- 81
2019-04-14 00:00:00 2.2 6 Este 7 Este 0 -- -- 73
2019-04-13 23:00:00 3.7 3 Sudeste 4 Este 0 -- -- 64
2019-04-13 22:00:00 6.3 0 Calma 6 Oeste 0 -- -- 47
2019-04-13 21:00:00 10.5 4 Noroeste 21 Oeste 0 -- -- 31
2019-04-13 20:00:00 17 15 Oeste 23 Oeste 0 -- -- 17
2019-04-13 19:00:00 18.5 16 Oeste 28 Oeste 0 -- -- 13
2019-04-13 18:00:00 19.1 13 Oeste 23 Oeste 0 -- -- 15
2019-04-13 17:00:00 19 12 Oeste 22 Noroeste 0 -- -- 14
2019-04-13 16:00:00 18.4 9 Noroeste 24 Oeste 0 -- -- 16
2019-04-13 15:00:00 17.6 8 Noroeste 25 Oeste 0 -- -- 17
2019-04-13 14:00:00 16.1 16 Noroeste 29 Oeste 0 -- -- 21
2019-04-13 13:00:00 14.8 15 Oeste 27 Oeste 0 -- -- 26
2019-04-13 12:00:00 11.8 21 Oeste 32 Oeste 0 -- -- 31
2019-04-13 11:00:00 8.4 18 Oeste 26 Noroeste 0 -- -- 47
2019-04-13 10:00:00 3.5 13 Oeste 19 Oeste 0 -- -- 78
2019-04-13 09:00:00 -0.7 2 Oeste 6 Noroeste 0 -- -- 92
2019-04-13 08:00:00 -4.9 0 Calma 4 Sudoeste 0 -- -- 95
2019-04-13 07:00:00 -5 0 Calma 3 Noroeste 0 -- -- 95
2019-04-13 06:00:00 -4.3 0 Calma 5 Oeste 0 -- -- 95
2019-04-13 05:00:00 -3.9 2 Noroeste 7 Oeste 0 -- -- 90
2019-04-13 04:00:00 -3.7 0 Calma 8 Sudoeste 0 -- -- 92
2019-04-13 03:00:00 -2.8 2 Sudeste 6 Este 0 -- -- 90
2019-04-13 02:00:00 -2 0 Calma 4 Sudoeste 0 -- -- 88
2019-04-13 01:00:00 -0.9 0 Calma 4 Sudeste 0 -- -- 85
2019-04-13 00:00:00 2.4 2 Oeste 15 Noroeste 0 -- -- 71
2019-04-12 23:00:00 5.5 7 Norte 18 Norte 0 -- -- 61
2019-04-12 22:00:00 7.4 13 Norte 23 Norte 0 -- -- 53
2019-04-12 21:00:00 8.7 12 Norte 17 Norte 0 -- -- 43
2019-04-12 20:00:00 12.8 14 Norte 24 Norte 0 -- -- 34
2019-04-12 19:00:00 14.9 18 Norte 31 Norte 0 -- -- 28
2019-04-12 18:00:00 15.7 14 Nordeste 27 Norte 0 -- -- 26
2019-04-12 17:00:00 15.3 14 Norte 32 Noroeste 0 -- -- 34
2019-04-12 16:00:00 15.6 13 Oeste 34 Oeste 0 -- -- 33
2019-04-12 15:00:00 14 12 Noroeste 26 Norte 0 -- -- 36
2019-04-12 14:00:00 12.5 10 Noroeste 28 Noroeste 0 -- -- 38
2019-04-12 13:00:00 11.1 12 Oeste 26 Noroeste 0 -- -- 52
2019-04-12 12:00:00 9.7 14 Oeste 23 Oeste 0 -- -- 58
2019-04-12 11:00:00 6.9 12 Oeste 21 Noroeste 0 -- -- 73
2019-04-12 10:00:00 3.7 11 Oeste 18 Oeste 0 -- -- 88
2019-04-12 09:00:00 0.1 6 Oeste 12 Oeste 0 -- -- 97
2019-04-12 08:00:00 -2.5 0 Calma 6 Oeste 0 -- -- 98
2019-04-12 07:00:00 -3 4 Noroeste 10 Oeste 0 -- -- 97
2019-04-12 06:00:00 -2.3 6 Oeste 10 Sudoeste 0 -- -- 93
2019-04-12 05:00:00 -0.6 3 Oeste 15 Oeste 0 -- -- 91
2019-04-12 04:00:00 1.5 13 Noroeste 23 Noroeste 0 -- -- 81
2019-04-12 03:00:00 0.7 9 Noroeste 14 Noroeste 0 -- -- 88
2019-04-12 02:00:00 1.7 9 Oeste 24 Norte 0 -- -- 85
2019-04-12 01:00:00 3.9 22 Norte 35 Norte 0 -- -- 78
2019-04-12 00:00:00 3.9 18 Norte 30 Norte 0 -- -- 81
2019-04-11 23:00:00 4.3 21 Norte 32 Norte 0 -- -- 81
2019-04-11 22:00:00 5.4 23 Norte 32 Norte 0 -- -- 75
2019-04-11 21:00:00 6.2 21 Norte 35 Norte 0 -- -- 73
2019-04-11 20:00:00 7.7 26 Norte 37 Norte 0 -- -- 65
2019-04-11 19:00:00 9.2 27 Norte 35 Norte 0 -- -- 59
2019-04-11 18:00:00 9.9 24 Norte 38 Norte 0 -- -- 54
2019-04-11 17:00:00 11 19 Norte 35 Norte 0 -- -- 54
2019-04-11 16:00:00 11.2 21 Norte 36 Nordeste 0 -- -- 57
2019-04-11 15:00:00 10.2 18 Noroeste 37 Noroeste 0 -- -- 55
2019-04-11 14:00:00 10.7 20 Norte 41 Norte 0 -- -- 53
2019-04-11 13:00:00 10.3 13 Noroeste 25 Norte 0 -- -- 50
2019-04-11 12:00:00 8.5 14 Noroeste 23 Oeste 0 -- -- 58
2019-04-11 11:00:00 6.1 12 Oeste 20 Oeste 0 -- -- 78
2019-04-11 10:00:00 3.1 17 Oeste 23 Oeste 0 -- -- 92
2019-04-11 09:00:00 0.4 11 Noroeste 15 Oeste 0 -- -- 97
2019-04-11 08:00:00 -1 4 Oeste 10 Noroeste 0 -- -- 98
2019-04-11 07:00:00 -1.6 3 Oeste 12 Oeste 0 -- -- 98
2019-04-11 06:00:00 -0.7 5 Oeste 13 Oeste 0 -- -- 98
2019-04-11 05:00:00 -0.8 5 Oeste 8 Oeste 0 -- -- 97
2019-04-11 04:00:00 -0.6 2 Oeste 6 Sudoeste 0 -- -- 98
2019-04-11 03:00:00 -1.1 4 Oeste 8 Oeste 0 -- -- 96
2019-04-11 02:00:00 -0.7 3 Noroeste 5 Noroeste 0 -- -- 95
2019-04-11 01:00:00 0 6 Oeste 13 Noroeste 0 -- -- 93
2019-04-11 00:00:00 2.9 8 Norte 12 Noroeste 0 -- -- 84
2019-04-10 23:00:00 3.9 8 Norte 33 Norte 0 -- -- 79
2019-04-10 22:00:00 5 31 Norte 43 Norte 0 -- -- 79
2019-04-10 21:00:00 5.7 17 Norte 23 Norte 0 -- -- 76
2019-04-10 20:00:00 7.1 14 Norte 29 Oeste 0 -- -- 73
2019-04-10 19:00:00 6.4 14 Oeste 30 Oeste 0 -- -- 76
2019-04-10 18:00:00 7.6 11 Oeste 31 Oeste 0.6 -- -- 77
2019-04-10 17:00:00 7.3 13 Sudoeste 32 Oeste 0.2 -- -- 75
2019-04-10 16:00:00 8.3 18 Oeste 35 Noroeste 0.4 -- -- 71
2019-04-10 15:00:00 5.2 3 Sudeste 35 Noroeste 2.8 -- -- 87
2019-04-10 14:00:00 9.6 24 Oeste 37 Oeste 0 -- -- 62
2019-04-10 13:00:00 8.6 24 Oeste 37 Oeste 0 -- -- 71
2019-04-10 12:00:00 7.2 24 Oeste 35 Oeste 0 -- -- 80
2019-04-10 11:00:00 5.9 26 Noroeste 40 Oeste 0 -- -- 82
2019-04-10 10:00:00 4.2 21 Oeste 35 Oeste 0 -- -- 88
2019-04-10 09:00:00 4 18 Oeste 28 Oeste 0 -- -- 94
2019-04-10 08:00:00 3.1 18 Oeste 28 Oeste 0 -- -- 93
2019-04-10 07:00:00 3.7 18 Oeste 30 Oeste 0.2 -- -- 93
2019-04-10 06:00:00 3.9 14 Oeste 21 Oeste 0 -- -- 95
2019-04-10 05:00:00 3.9 11 Oeste 17 Oeste 0.2 -- -- 97
2019-04-10 04:00:00 3.2 8 Oeste 10 Oeste 0.2 -- -- 97
2019-04-10 03:00:00 3 5 Oeste 12 Oeste 0 -- -- 96
2019-04-10 02:00:00 3.1 11 Noroeste 17 Noroeste 0.4 -- -- 95
2019-04-10 01:00:00 3 9 Oeste 13 Oeste 0.2 -- -- 94
2019-04-10 00:00:00 2.3 10 Noroeste 33 Noroeste 1.2 -- -- 94
2019-04-09 23:00:00 3.7 5 Oeste 24 Oeste 0.2 -- -- 93
2019-04-09 22:00:00 4 14 Oeste 35 Oeste 0.2 -- -- 95
2019-04-09 21:00:00 4.5 4 Oeste 20 Oeste 0 -- -- 90
2019-04-09 20:00:00 5.6 18 Oeste 45 Oeste 0 -- -- 85
2019-04-09 19:00:00 5.2 15 Oeste 40 Oeste 0.2 -- -- 91
2019-04-09 18:00:00 3.8 35 Oeste 58 Oeste 0.4 -- -- 91
2019-04-09 17:00:00 3.6 11 Sudoeste 36 Oeste 1.4 -- -- 92
2019-04-09 16:00:00 4.4 23 Oeste 41 Oeste 3.4 -- -- 93
2019-04-09 15:00:00 9.1 18 Sudoeste 37 Sudoeste 0 -- -- 63
2019-04-09 14:00:00 8.6 22 Sudoeste 34 Sudoeste 0.2 -- -- 71
2019-04-09 13:00:00 8 18 Sudoeste 29 Sudoeste 0 -- -- 70
2019-04-09 12:00:00 9 17 Sudoeste 32 Sur 0 -- -- 66
2019-04-09 11:00:00 6.4 22 Sudoeste 35 Sur 0 -- -- 84
2019-04-09 10:00:00 5.6 13 Sudoeste 21 Sur 0 -- -- 87
2019-04-09 09:00:00 3.3 10 Sur 18 Sur 0 -- -- 94
2019-04-09 08:00:00 3.1 5 Oeste 8 Oeste 0 -- -- 95
2019-04-09 07:00:00 2.5 4 Oeste 18 Sudoeste 0 -- -- 93
2019-04-09 06:00:00 1.5 5 Oeste 10 Oeste 0 -- -- 95
2019-04-09 05:00:00 1.4 4 Oeste 14 Oeste 0 -- -- 94
2019-04-09 04:00:00 3 3 Sudoeste 8 Oeste 0 -- -- 96
2019-04-09 03:00:00 2.6 3 Noroeste 14 Sudoeste 0 -- -- 94
2019-04-09 02:00:00 4.9 8 Sudoeste 18 Sudoeste 0 -- -- 90
2019-04-09 01:00:00 4.9 8 Sudoeste 14 Sudoeste 0.2 -- -- 90
2019-04-09 00:00:00 4.8 4 Sudoeste 23 Sur 0.6 -- -- 87
2019-04-08 23:00:00 5.7 17 Sur 32 Sudoeste 0 -- -- 82
2019-04-08 22:00:00 6.5 6 Sur 13 Sur 0 -- -- 79
2019-04-08 21:00:00 7.6 10 Oeste 26 Oeste 0 -- -- 70
2019-04-08 20:00:00 11.2 20 Noroeste 33 Oeste 0 -- -- 51
2019-04-08 19:00:00 11.7 15 Oeste 40 Oeste 0 -- -- 47
2019-04-08 18:00:00 13.3 22 Oeste 34 Oeste 0 -- -- 51
2019-04-08 17:00:00 11.4 22 Oeste 42 Oeste 0 -- -- 58
2019-04-08 16:00:00 12.6 28 Oeste 40 Oeste 0.2 -- -- 59
2019-04-08 15:00:00 10.8 21 Noroeste 37 Oeste 0 -- -- 70
2019-04-08 14:00:00 10.7 23 Oeste 34 Oeste 0 -- -- 71
2019-04-08 13:00:00 9.2 23 Oeste 37 Oeste 0.2 -- -- 83
2019-04-08 12:00:00 8 13 Oeste 26 Sudoeste 0 -- -- 89
2019-04-08 11:00:00 7.3 15 Sudoeste 26 Sudoeste 0 -- -- 88
2019-04-08 10:00:00 6 15 Sudoeste 26 Sudoeste 1 -- -- 94
2019-04-08 09:00:00 5.6 14 Sudoeste 27 Sudoeste 0.2 -- -- 94
2019-04-08 08:00:00 5.3 15 Sudoeste 33 Sudoeste 0.2 -- -- 93
2019-04-08 07:00:00 5 21 Sudoeste 32 Sudoeste 0 -- -- 94
2019-04-08 06:00:00 5.1 21 Sudoeste 38 Sur 0 -- -- 94
2019-04-08 05:00:00 5 20 Sudoeste 35 Sudoeste 0 -- -- 94
2019-04-08 04:00:00 4.9 23 Sudoeste 36 Sudoeste 0.2 -- -- 94
2019-04-08 03:00:00 4.7 20 Sur 38 Sudoeste 0 -- -- 93
2019-04-08 02:00:00 4.5 14 Sur 23 Sur 0.2 -- -- 90
2019-04-08 01:00:00 4 7 Sur 19 Sudoeste 0.2 -- -- 92
2019-04-08 00:00:00 4.3 10 Sudoeste 23 Sudoeste 0.2 -- -- 89
2019-04-07 23:00:00 5.4 13 Sudoeste 31 Sudoeste 0 -- -- 75
2019-04-07 22:00:00 6.1 21 Sudoeste 34 Sur 0 -- -- 70
2019-04-07 21:00:00 7.7 12 Sudoeste 22 Sudoeste 0 -- -- 55
2019-04-07 20:00:00 8.7 12 Sudoeste 24 Oeste 0 -- -- 47
2019-04-07 19:00:00 9.9 12 Oeste 22 Noroeste 0 -- -- 44
2019-04-07 18:00:00 9.2 15 Oeste 27 Noroeste 0 -- -- 52
2019-04-07 17:00:00 9.2 17 Oeste 33 Oeste 0 -- -- 52
2019-04-07 16:00:00 9.3 18 Oeste 34 Oeste 0 -- -- 54
2019-04-07 15:00:00 6.7 21 Oeste 32 Oeste 0 -- -- 63
2019-04-07 14:00:00 6.3 23 Oeste 38 Oeste 0 -- -- 63
2019-04-07 13:00:00 6.6 25 Oeste 40 Oeste 0 -- -- 66
2019-04-07 12:00:00 4.2 26 Oeste 47 Oeste 0 -- -- 75
2019-04-07 11:00:00 3.4 31 Oeste 45 Oeste 0 -- -- 78
2019-04-07 10:00:00 2.5 28 Oeste 45 Oeste 0 -- -- 81
2019-04-07 09:00:00 1.9 23 Oeste 36 Oeste 0 -- -- 91
2019-04-07 08:00:00 1.1 12 Oeste 36 Oeste 0 -- -- 91
2019-04-07 07:00:00 1.7 23 Oeste 34 Oeste 0 -- -- 88
2019-04-07 06:00:00 1.6 17 Oeste 29 Oeste 0 -- -- 91
2019-04-07 05:00:00 2 20 Oeste 36 Oeste 0 -- -- 88
2019-04-07 04:00:00 2.4 15 Oeste 35 Oeste 0 -- -- 87
2019-04-07 03:00:00 2.6 26 Oeste 45 Oeste 0 -- -- 83
2019-04-07 02:00:00 2.7 21 Oeste 39 Oeste 0 -- -- 85
2019-04-07 01:00:00 2.7 18 Oeste 28 Oeste 0.2 -- -- 92
2019-04-07 00:00:00 0.6 10 Oeste 28 Oeste 0.8 -- -- 97
2019-04-06 23:00:00 1.3 10 Noroeste 35 Noroeste 0.2 -- -- 96
2019-04-06 22:00:00 4.2 14 Sudoeste 30 Oeste 0.2 -- -- 80
2019-04-06 21:00:00 3.9 14 Oeste 35 Sudoeste 0 -- -- 82
2019-04-06 20:00:00 4.1 21 Sudoeste 50 Sudoeste 0.2 -- -- 83
2019-04-06 19:00:00 4.5 25 Oeste 51 Oeste 0.2 -- -- 79
2019-04-06 18:00:00 7.8 33 Sudoeste 54 Oeste 0 -- -- 60
2019-04-06 17:00:00 8.4 36 Oeste 55 Oeste 0 -- -- 61
2019-04-06 16:00:00 7.5 28 Oeste 43 Oeste 0 -- -- 65
2019-04-06 15:00:00 7.4 17 Sudoeste 43 Sudoeste 0 -- -- 67
2019-04-06 14:00:00 7.4 27 Sudoeste 42 Sudoeste 0 -- -- 67
2019-04-06 13:00:00 4.6 28 Sudoeste 47 Sudoeste 0 -- -- 81
2019-04-06 12:00:00 3.7 23 Sudoeste 44 Sur 0 -- -- 81
2019-04-06 11:00:00 2.9 23 Sudoeste 35 Sudoeste 0.6 -- -- 84
2019-04-06 10:00:00 2 23 Sudoeste 35 Sudoeste 0.8 -- -- 86
2019-04-06 09:00:00 1.6 16 Sudoeste 27 Sudoeste 0.2 -- -- 88
2019-04-06 08:00:00 0.7 13 Sudoeste 24 Oeste 0.2 -- -- 91
2019-04-06 07:00:00 0.7 12 Sudoeste 19 Oeste 0 -- -- 93
2019-04-06 06:00:00 0.8 8 Sudoeste 21 Sudoeste 0.2 -- -- 93
2019-04-06 05:00:00 0.8 8 Sudoeste 15 Sur 0.2 -- -- 93
2019-04-06 04:00:00 0.6 6 Oeste 11 Oeste 0 -- -- 95
2019-04-06 03:00:00 0.4 3 Sudoeste 9 Oeste 0 -- -- 97
2019-04-06 02:00:00 0.5 9 Oeste 15 Oeste 0.2 -- -- 96
2019-04-06 01:00:00 0.4 9 Oeste 13 Oeste 0 -- -- 96
2019-04-06 00:00:00 0.2 8 Oeste 16 Oeste 0 -- -- 96
2019-04-05 23:00:00 0.8 15 Oeste 20 Oeste 0.4 -- -- 96
2019-04-05 22:00:00 0.8 10 Oeste 16 Oeste 0.4 -- -- 98
2019-04-05 21:00:00 0.8 6 Oeste 14 Oeste 0.6 -- -- 98
2019-04-05 20:00:00 0.3 8 Oeste 12 Oeste 0.2 -- -- 98
2019-04-05 19:00:00 0.3 3 Oeste 4 Oeste 0 -- -- 97
2019-04-05 18:00:00 0.2 4 Oeste 30 Oeste 0 -- -- 96
2019-04-05 17:00:00 1.9 19 Oeste 30 Oeste 0 -- -- 86
2019-04-05 16:00:00 7.1 19 Sur 30 Sur 0 -- -- 68
2019-04-05 15:00:00 6.1 14 Sur 27 Sur 0 -- -- 73
2019-04-05 14:00:00 5.7 16 Sur 36 Sur 0 -- -- 70
2019-04-05 13:00:00 5.5 16 Sur 28 Sudoeste 0 -- -- 74
2019-04-05 12:00:00 5.3 15 Sudoeste 31 Sudoeste 0 -- -- 74
2019-04-05 11:00:00 5.3 18 Sur 39 Sur 0 -- -- 77
2019-04-05 10:00:00 4.2 11 Sur 25 Sur 0 -- -- 83
2019-04-05 09:00:00 3.1 11 Sur 37 Sudoeste 0 -- -- 86
2019-04-05 08:00:00 3.1 26 Sur 40 Sur 0 -- -- 85
2019-04-05 07:00:00 3 19 Sur 40 Sur 0 -- -- 85
2019-04-05 06:00:00 3.4 18 Sur 36 Sudoeste 0 -- -- 81
2019-04-05 05:00:00 4.3 26 Sur 42 Sudoeste 0 -- -- 69
2019-04-05 04:00:00 3.9 4 Sur 9 Sur 0 -- -- 54
2019-04-05 03:00:00 3.9 5 Sur 12 Sudoeste 0 -- -- 55
2019-04-05 02:00:00 3.7 2 Sudoeste 10 Sur 0 -- -- 51
2019-04-05 01:00:00 3.7 0 Calma 8 Oeste 0 -- -- 47
2019-04-05 00:00:00 4.3 6 Noroeste 18 Sur 0 -- -- 45
2019-04-04 23:00:00 5.5 8 Sur 18 Sur 0 -- -- 39
2019-04-04 22:00:00 6.5 11 Sur 23 Sur 0 -- -- 35
2019-04-04 21:00:00 6.9 13 Sur 28 Sudoeste 0 -- -- 34
2019-04-04 20:00:00 8.2 22 Sudoeste 36 Sudoeste 0 -- -- 30
2019-04-04 19:00:00 9 24 Sudoeste 43 Sudoeste 0 -- -- 27
2019-04-04 18:00:00 11.2 23 Sudoeste 42 Sudoeste 0 -- -- 29
2019-04-04 17:00:00 10.7 19 Sur 36 Sudoeste 0 -- -- 32
2019-04-04 16:00:00 10.7 12 Sudoeste 27 Oeste 0 -- -- 33
2019-04-04 15:00:00 9.1 12 Oeste 32 Oeste 0 -- -- 39
2019-04-04 14:00:00 7.3 21 Oeste 34 Oeste 0 -- -- 46
2019-04-04 13:00:00 5.9 19 Oeste 36 Oeste 0 -- -- 50
2019-04-04 12:00:00 4.5 23 Oeste 35 Oeste 0 -- -- 58
2019-04-04 11:00:00 2.5 19 Oeste 34 Oeste 0 -- -- 65
2019-04-04 10:00:00 0 14 Oeste 20 Oeste 0 -- -- 81
2019-04-04 09:00:00 -3.1 2 Noroeste 8 Sudoeste 0 -- -- 88
2019-04-04 08:00:00 -5.4 4 Oeste 11 Sudoeste 0 -- -- 90
2019-04-04 07:00:00 -4.5 7 Oeste 17 Oeste 0 -- -- 89
2019-04-04 06:00:00 -4.8 7 Oeste 16 Oeste 0 -- -- 89
2019-04-04 05:00:00 -5.1 2 Noroeste 8 Oeste 0 -- -- 97
2019-04-04 04:00:00 -4.3 5 Sudoeste 7 Sudoeste 0 -- -- 98
2019-04-04 03:00:00 -4.2 3 Noroeste -- -- 0 -- -- 97
2019-04-04 02:00:00 -3.4 2 Noroeste 3 Oeste 0 -- -- 96
2019-04-04 01:00:00 -2.2 0 Calma 4 Noroeste 0 -- -- 95
2019-04-04 00:00:00 0.4 0 Calma 4 Sudeste 0 -- -- 87
2019-04-03 23:00:00 1.1 3 Este 21 Norte 0 -- -- 86
2019-04-03 22:00:00 2.8 13 Oeste 24 Oeste 0 -- -- 73
2019-04-03 21:00:00 3.8 13 Oeste 32 Noroeste 0 -- -- 62
2019-04-03 20:00:00 4.8 27 Oeste 41 Noroeste 0 -- -- 62
2019-04-03 19:00:00 7.4 29 Noroeste 40 Oeste 0 -- -- 47
2019-04-03 18:00:00 8.1 33 Oeste 48 Oeste 0 -- -- 40
2019-04-03 17:00:00 10.7 32 Oeste 46 Oeste 0 -- -- 39
2019-04-03 16:00:00 9.8 31 Oeste 47 Oeste 0 -- -- 44
2019-04-03 15:00:00 8.3 34 Oeste 53 Oeste 0 -- -- 58
2019-04-03 14:00:00 7.6 34 Oeste 48 Oeste 0 -- -- 65
2019-04-03 13:00:00 6.8 25 Oeste 43 Oeste 0 -- -- 72
2019-04-03 12:00:00 6.3 26 Noroeste 45 Noroeste 0 -- -- 80
2019-04-03 11:00:00 7.4 34 Noroeste 46 Noroeste 0 -- -- 79
2019-04-03 10:00:00 5.8 22 Noroeste 28 Noroeste 0 -- -- 83
2019-04-03 09:00:00 4 6 Noroeste 13 Oeste 0 -- -- 89
2019-04-03 08:00:00 2.7 8 Oeste 14 Oeste 0 -- -- 88
2019-04-03 07:00:00 3 10 Oeste 22 Noroeste 0 -- -- 87
2019-04-03 06:00:00 2.6 5 Oeste 12 Oeste 0 -- -- 86
2019-04-03 05:00:00 3.9 10 Oeste 18 Oeste 0 -- -- 81
2019-04-03 04:00:00 5.2 11 Oeste 21 Sudoeste 0 -- -- 85
2019-04-03 03:00:00 5.6 15 Sudoeste 24 Sudoeste 0.2 -- -- 94
2019-04-03 02:00:00 6 15 Sudoeste 21 Sudoeste 0 -- -- 93
2019-04-03 01:00:00 5.2 3 Sur 13 Este 0 -- -- 94
2019-04-03 00:00:00 5.8 5 Este 12 Este 0 -- -- 92
2019-04-02 23:00:00 6.6 9 Este 14 Este 0 -- -- 91
2019-04-02 22:00:00 6.3 5 Nordeste 15 Norte 0 -- -- 92
2019-04-02 21:00:00 7.1 10 Nordeste 20 Sudeste 0 -- -- 88
2019-04-02 20:00:00 7 18 Este 42 Sudoeste 2.8 -- -- 90
2019-04-02 19:00:00 9.2 23 Norte 43 Norte 0 -- -- 72
2019-04-02 18:00:00 15.3 12 Sudoeste 26 Sur 0 -- -- 47
2019-04-02 17:00:00 13.1 18 Sur 37 Sur 0 -- -- 56
2019-04-02 16:00:00 12.6 19 Sudoeste 44 Sudoeste 0 -- -- 54
2019-04-02 15:00:00 13.7 12 Sudoeste 26 Sudoeste 0 -- -- 51
2019-04-02 14:00:00 14.9 5 Sur 16 Oeste 0 -- -- 55
2019-04-02 13:00:00 13.4 4 Sudoeste 14 Oeste 0 -- -- 61
2019-04-02 12:00:00 10.7 6 Oeste 13 Oeste 0 -- -- 83
2019-04-02 11:00:00 6.8 5 Noroeste 9 Noroeste 0 -- -- 97
2019-04-02 10:00:00 3.2 2 Noroeste 6 Oeste 0 -- -- 99
2019-04-02 09:00:00 1.3 0 Calma 4 Oeste 0.2 -- -- 99
2019-04-02 08:00:00 0.1 0 Calma 3 Nordeste 0 -- -- 99
2019-04-02 07:00:00 0.6 2 Este 3 Este 0 -- -- 99
2019-04-02 06:00:00 1.2 0 Calma 4 Sur 0 -- -- 99
2019-04-02 05:00:00 2.3 0 Calma 8 Nordeste 0 -- -- 99
2019-04-02 04:00:00 2.4 0 Calma 6 Nordeste 0 -- -- 99
2019-04-02 03:00:00 2.6 3 Este 6 Nordeste 0 -- -- 97
2019-04-02 02:00:00 4 3 Este 8 Nordeste 0 -- -- 96
2019-04-02 01:00:00 6.2 6 Nordeste 8 Nordeste 0 -- -- 97
2019-04-02 00:00:00 6.8 5 Este 12 Este 0 -- -- 95
2019-04-01 23:00:00 7.9 10 Este 19 Este 0 -- -- 94
2019-04-01 22:00:00 8 10 Sudeste 17 Sudeste 0.2 -- -- 94
2019-04-01 21:00:00 8.3 7 Sudeste 24 Este 0 -- -- 86
2019-04-01 20:00:00 9.4 15 Sudeste 25 Este 0 -- -- 88
2019-04-01 19:00:00 10.4 11 Este 21 Este 0 -- -- 85
2019-04-01 18:00:00 12.9 12 Oeste 27 Oeste 0 -- -- 63
2019-04-01 17:00:00 13.2 6 Sudoeste 14 Sudeste 0 -- -- 66
2019-04-01 16:00:00 12.7 5 Este 13 Sudeste 0.2 -- -- 70
2019-04-01 15:00:00 10.6 3 Sudoeste 22 Sudoeste 0.2 -- -- 82
2019-04-01 14:00:00 11.7 8 Sur 19 Este 0 -- -- 72
2019-04-01 13:00:00 11 4 Nordeste 12 Sur 0 -- -- 77
2019-04-01 12:00:00 8.5 5 Sudeste 15 Este 0 -- -- 87
2019-04-01 11:00:00 7.1 9 Este 20 Este 0 -- -- 91
2019-04-01 10:00:00 5.5 12 Este 19 Este 0 -- -- 97
2019-04-01 09:00:00 5 9 Este 16 Este 0 -- -- 98
2019-04-01 08:00:00 4.9 7 Sudeste 13 Sudeste 0 -- -- 97
2019-04-01 07:00:00 4.9 9 Sudeste 14 Este 0 -- -- 97
2019-04-01 06:00:00 4.8 8 Sudeste 13 Sudeste 0 -- -- 95
2019-04-01 05:00:00 4.9 7 Sudeste 11 Este 0 -- -- 94
2019-04-01 04:00:00 4.9 6 Este 12 Este 0 -- -- 93
2019-04-01 03:00:00 4.8 9 Este 16 Este 0 -- -- 93
2019-04-01 02:00:00 4.8 8 Este 14 Este 0 -- -- 93
2019-04-01 01:00:00 4.8 6 Este 11 Este 0.2 -- -- 92
2019-04-01 00:00:00 4.7 6 Este 14 Nordeste 0 -- -- 92
2019-03-31 23:00:00 4.7 10 Este 18 Nordeste 0 -- -- 92
2019-03-31 22:00:00 4.9 11 Este 24 Este 0.2 -- -- 91
2019-03-31 21:00:00 5.2 15 Este 23 Este 0.2 -- -- 93
2019-03-31 20:00:00 5.8 8 Este 19 Este 0.6 -- -- 92
2019-03-31 19:00:00 6.3 12 Este 24 Este 0.8 -- -- 90
2019-03-31 18:00:00 7.1 19 Este 25 Este 0.2 -- -- 81
2019-03-31 17:00:00 8.3 19 Este 25 Este 0 -- -- 67
2019-03-31 16:00:00 9.2 17 Este 26 Este 0 -- -- 61
2019-03-31 15:00:00 9.1 18 Este 23 Este 0 -- -- 67
2019-03-31 14:00:00 10.6 13 Este 24 Este 0 -- -- 49
2019-03-31 13:00:00 11.9 17 Este 26 Este 0 -- -- 43
2019-03-31 12:00:00 9.5 17 Sudeste 25 Este 0 -- -- 53
2019-03-31 11:00:00 10.8 17 Este 23 Este 0 -- -- 47
2019-03-31 10:00:00 7.5 12 Este 15 Este 0 -- -- 63
2019-03-31 09:00:00 3.2 0 Calma 6 Noroeste 0 -- -- 78
2019-03-31 08:00:00 1.2 0 Calma 4 Sur 0 -- -- 76
2019-03-31 07:00:00 0.4 0 Calma 6 Noroeste 0 -- -- 74
2019-03-31 06:00:00 -0.6 5 Noroeste 6 Noroeste 0 -- -- 75
2019-03-31 05:00:00 0.8 0 Calma 8 Este 0 -- -- 73
2019-03-31 03:00:00 2.6 4 Este 8 Este 0 -- -- 64
2019-03-31 01:00:00 4 0 Calma 13 Este 0 -- -- 59
2019-03-31 00:00:00 7.2 4 Este 18 Este 0 -- -- 47
2019-03-30 23:00:00 8 13 Este 18 Este 0 -- -- 43
2019-03-30 22:00:00 7.9 10 Este 16 Nordeste 0 -- -- 42
2019-03-30 21:00:00 8.5 13 Este 23 Este 0 -- -- 40
2019-03-30 20:00:00 10.3 14 Este 27 Este 0 -- -- 37
2019-03-30 19:00:00 14.1 12 Este 27 Este 0 -- -- 30
2019-03-30 18:00:00 17.3 5 Sudeste 19 Este 0 -- -- 25
2019-03-30 17:00:00 16.9 7 Sudeste 19 Este 0 -- -- 26
2019-03-30 16:00:00 16.7 11 Este 23 Sudeste 0 -- -- 27
2019-03-30 15:00:00 16.5 8 Este 20 Este 0 -- -- 29
2019-03-30 14:00:00 14.7 9 Sudeste 25 Este 0 -- -- 32
2019-03-30 13:00:00 13.8 10 Este 24 Este 0 -- -- 35
2019-03-30 12:00:00 13.5 10 Este 21 Este 0 -- -- 35
2019-03-30 11:00:00 11.5 7 Sudeste 16 Este 0 -- -- 41
2019-03-30 10:00:00 9.6 6 Sudeste 12 Sudeste 0 -- -- 46
2019-03-30 09:00:00 6 2 Este 6 Este 0 -- -- 62
2019-03-30 08:00:00 -0.7 6 Este 7 Este 0 -- -- 82
2019-03-30 07:00:00 -3.9 4 Este 6 Este 0 -- -- 88
2019-03-30 06:00:00 -3.2 3 Este 8 Este 0 -- -- 86
2019-03-30 05:00:00 -2.8 5 Este 7 Nordeste 0 -- -- 85
2019-03-30 04:00:00 -1.7 2 Este 5 Nordeste 0 -- -- 83
2019-03-30 03:00:00 -1.5 3 Nordeste 6 Nordeste 0 -- -- 84
2019-03-30 02:00:00 -0.4 5 Nordeste 8 Este 0 -- -- 79
2019-03-30 01:00:00 1.2 6 Nordeste 8 Nordeste 0 -- -- 76
2019-03-30 00:00:00 3.4 0 Calma 9 Sudeste 0 -- -- 71
2019-03-29 23:00:00 6.9 5 Sudeste 20 Este 0 -- -- 61
2019-03-29 22:00:00 8.5 16 Este 23 Este 0 -- -- 57
2019-03-29 21:00:00 9.6 16 Este 28 Este 0 -- -- 51
2019-03-29 20:00:00 11.3 17 Este 29 Este 0 -- -- 41
2019-03-29 19:00:00 15 23 Este 35 Este 0 -- -- 33
2019-03-29 18:00:00 17.8 8 Sudeste 27 Sudeste 0 -- -- 24
2019-03-29 17:00:00 18.1 7 Sur 24 Sudoeste 0 -- -- 23
2019-03-29 16:00:00 17.7 4 Nordeste 32 Sudeste 0 -- -- 24
2019-03-29 15:00:00 16.4 18 Este 29 Este 0 -- -- 26
2019-03-29 14:00:00 15.6 10 Sudeste 26 Sudeste 0 -- -- 30
2019-03-29 13:00:00 15 13 Este 22 Sur 0 -- -- 32
2019-03-29 12:00:00 14.2 8 Sudeste 21 Sudeste 0 -- -- 33
2019-03-29 11:00:00 12.4 10 Sudeste 18 Sudeste 0 -- -- 36
2019-03-29 10:00:00 10.2 10 Sudeste 17 Sudeste 0 -- -- 42
2019-03-29 09:00:00 7.2 8 Sudeste 12 Sudeste 0 -- -- 54
2019-03-29 08:00:00 0.9 3 Este 7 Nordeste 0 -- -- 75
2019-03-29 07:00:00 -2.8 2 Este 7 Nordeste 0 -- -- 85
2019-03-29 06:00:00 -2.9 4 Este 8 Nordeste 0 -- -- 85
2019-03-29 05:00:00 -2.3 4 Este 10 Este 0 -- -- 81
2019-03-29 04:00:00 -2 4 Este 7 Este 0 -- -- 82
2019-03-29 03:00:00 -1.6 3 Este 7 Este 0 -- -- 80
2019-03-29 02:00:00 0.2 3 Este 8 Nordeste 0 -- -- 78
2019-03-29 01:00:00 0 4 Nordeste 7 Este 0 -- -- 76
2019-03-29 00:00:00 1.9 0 Calma 9 Nordeste 0 -- -- 71
2019-03-28 23:00:00 4.5 4 Sudeste 12 Este 0 -- -- 61
2019-03-28 22:00:00 4.8 7 Este 9 Este 0 -- -- 60
2019-03-28 21:00:00 7.9 9 Este 18 Nordeste 0 -- -- 51
2019-03-28 20:00:00 8.9 9 Este 21 Este 0 -- -- 44
2019-03-28 19:00:00 14.9 14 Este 26 Nordeste 0 -- -- 28
2019-03-28 18:00:00 17 10 Norte 19 Nordeste 0 -- -- 25
2019-03-28 17:00:00 17.2 13 Norte 23 Este 0 -- -- 26
2019-03-28 16:00:00 18.7 8 Este 17 Nordeste 0 -- -- 25
2019-03-28 15:00:00 16.4 6 Norte 14 Este 0 -- -- 24
2019-03-28 14:00:00 16.2 7 Oeste 15 Noroeste 0 -- -- 26
2019-03-28 13:00:00 15.2 6 Oeste 14 Sudoeste 0 -- -- 30
2019-03-28 12:00:00 13.9 6 Nordeste 15 Noroeste 0 -- -- 32
2019-03-28 11:00:00 12.2 5 Sur 15 Este 0 -- -- 37
2019-03-28 10:00:00 10.1 6 Este 12 Este 0 -- -- 41
2019-03-28 09:00:00 5.5 3 Sudeste 6 Sudeste 0 -- -- 57
2019-03-28 08:00:00 -2 4 Este 8 Este 0 -- -- 73
2019-03-28 07:00:00 -4.2 3 Este 9 Este 0 -- -- 79
2019-03-28 06:00:00 -4.6 5 Este 8 Este 0 -- -- 77
2019-03-28 05:00:00 -2.5 6 Este 11 Nordeste 0 -- -- 76
2019-03-28 04:00:00 -2.3 3 Sudeste 7 Este 0 -- -- 70
2019-03-28 03:00:00 1.1 5 Sur 12 Noroeste 0 -- -- 65
2019-03-28 02:00:00 2.9 4 Sudoeste 28 Nordeste 0 -- -- 55
2019-03-28 01:00:00 4.3 18 Nordeste 35 Nordeste 0 -- -- 51
2019-03-28 00:00:00 5.4 23 Norte 48 Norte 0 -- -- 44
2019-03-27 23:00:00 6.5 29 Norte 48 Norte 0 -- -- 35
2019-03-27 22:00:00 7.1 21 Norte 31 Norte 0 -- -- 33
2019-03-27 21:00:00 8.2 21 Norte 31 Nordeste 0 -- -- 33
2019-03-27 20:00:00 9.7 17 Nordeste 27 Nordeste 0 -- -- 29
2019-03-27 19:00:00 13.2 19 Nordeste 32 Nordeste 0 -- -- 21
2019-03-27 18:00:00 15 23 Norte 36 Nordeste 0 -- -- 20
2019-03-27 17:00:00 15.8 23 Nordeste 37 Nordeste 0 -- -- 19
2019-03-27 16:00:00 16 23 Norte 34 Norte 0 -- -- 20
2019-03-27 15:00:00 15.7 19 Norte 37 Nordeste 0 -- -- 18
2019-03-27 14:00:00 15.7 17 Nordeste 47 Norte 0 -- -- 19
2019-03-27 13:00:00 14.7 15 Nordeste 28 Nordeste 0 -- -- 18
2019-03-27 12:00:00 13.6 12 Nordeste 23 Nordeste 0 -- -- 24
2019-03-27 11:00:00 11.6 10 Nordeste 19 Norte 0 -- -- 28
2019-03-27 10:00:00 10.1 14 Nordeste 22 Nordeste 0 -- -- 30
2019-03-27 09:00:00 4.6 2 Sudeste 6 Este 0 -- -- 48
2019-03-27 08:00:00 -3.3 3 Sudeste 6 Sudeste 0 -- -- 68
2019-03-27 07:00:00 -6.4 3 Este 7 Este 0 -- -- 75
2019-03-27 06:00:00 -4.7 2 Sudeste 8 Este 0 -- -- 70
2019-03-27 05:00:00 -1.8 4 Este 13 Este 0 -- -- 59
2019-03-27 04:00:00 0.9 5 Este 10 Este 0 -- -- 53
2019-03-27 03:00:00 0.6 4 Sudeste 10 Sudeste 0 -- -- 53
2019-03-27 02:00:00 2.5 5 Nordeste 26 Norte 0 -- -- 46
2019-03-27 01:00:00 4.5 22 Nordeste 35 Nordeste 0 -- -- 39
2019-03-27 00:00:00 4.5 23 Norte 38 Nordeste 0 -- -- 38
2019-03-26 23:00:00 4.9 22 Norte 40 Norte 0 -- -- 37
2019-03-26 22:00:00 5.3 23 Nordeste 43 Nordeste 0 -- -- 36
2019-03-26 21:00:00 6.6 24 Nordeste 45 Norte 0 -- -- 33
2019-03-26 20:00:00 8 19 Nordeste 29 Norte 0 -- -- 28
2019-03-26 19:00:00 12.3 20 Nordeste 33 Nordeste 0 -- -- 20
2019-03-26 18:00:00 15.6 17 Nordeste 32 Norte 0 -- -- 17
2019-03-26 17:00:00 16 20 Nordeste 32 Nordeste 0 -- -- 18
2019-03-26 16:00:00 16.4 18 Nordeste 35 Nordeste 0 -- -- 22
2019-03-26 15:00:00 16.7 13 Este 28 Nordeste 0 -- -- 26
2019-03-26 14:00:00 15.2 10 Este 32 Este 0 -- -- 32
2019-03-26 13:00:00 13.9 17 Este 31 Este 0 -- -- 32
2019-03-26 12:00:00 12.8 11 Este 22 Este 0 -- -- 41
2019-03-26 11:00:00 10.9 12 Este 25 Este 0 -- -- 42
2019-03-26 10:00:00 8.4 16 Nordeste 35 Nordeste 0 -- -- 46
2019-03-26 09:00:00 5.4 21 Nordeste 31 Nordeste 0 -- -- 51
2019-03-26 08:00:00 2.9 5 Este 14 Este 0 -- -- 62
2019-03-26 07:00:00 0.7 4 Sudeste 13 Este 0 -- -- 71
2019-03-26 06:00:00 2 9 Este 26 Nordeste 0 -- -- 68
2019-03-26 05:00:00 1 2 Este 12 Norte 0 -- -- 76
2019-03-26 04:00:00 1.4 11 Norte 23 Nordeste 0 -- -- 78
2019-03-26 03:00:00 2.4 13 Norte 30 Nordeste 0 -- -- 75
2019-03-26 02:00:00 2.9 22 Norte 30 Norte 0 -- -- 72
2019-03-26 01:00:00 2.6 12 Norte 24 Norte 0 -- -- 73
2019-03-26 00:00:00 3.5 12 Norte 20 Norte 0 -- -- 69
2019-03-25 23:00:00 3.7 6 Nordeste 26 Norte 0 -- -- 64
2019-03-25 22:00:00 4.8 15 Norte 27 Nordeste 0 -- -- 59
2019-03-25 21:00:00 6.2 9 Norte 24 Noroeste 0 -- -- 52
2019-03-25 20:00:00 7.6 6 Sudoeste 31 Norte 0 -- -- 45
2019-03-25 19:00:00 10.3 22 Norte 42 Norte 0 -- -- 41
2019-03-25 18:00:00 12.8 33 Norte 47 Norte 0 -- -- 32
2019-03-25 17:00:00 14.9 26 Norte 41 Norte 0 -- -- 23
2019-03-25 16:00:00 16.1 23 Norte 36 Norte 0 -- -- 24
2019-03-25 15:00:00 15.6 19 Norte 33 Norte 0 -- -- 30
2019-03-25 14:00:00 14.7 22 Norte 35 Norte 0 -- -- 31
2019-03-25 13:00:00 14 18 Norte 31 Norte 0 -- -- 41
2019-03-25 12:00:00 13.3 19 Nordeste 31 Nordeste 0 -- -- 43
2019-03-25 11:00:00 11.8 17 Norte 27 Norte 0 -- -- 41
2019-03-25 10:00:00 10.3 16 Norte 28 Norte 0 -- -- 48
2019-03-25 09:00:00 8.4 15 Norte 23 Norte 0 -- -- 55
2019-03-25 08:00:00 0.3 0 Calma 4 Noroeste 0 -- -- 82
2019-03-25 07:00:00 -0.9 0 Calma 5 Este 0 -- -- 83
2019-03-25 06:00:00 0.6 0 Calma 9 Oeste 0 -- -- 77
2019-03-25 05:00:00 3.1 6 Oeste 26 Norte 0 -- -- 69
2019-03-25 04:00:00 7.4 7 Oeste 31 Norte 0 -- -- 58
2019-03-25 03:00:00 7.5 18 Nordeste 36 Norte 0 -- -- 57
2019-03-25 02:00:00 8 24 Norte 36 Nordeste 0 -- -- 52
2019-03-25 01:00:00 8.6 28 Norte 39 Norte 0 -- -- 49
2019-03-25 00:00:00 8.3 17 Norte 32 Norte 0 -- -- 50
2019-03-24 23:00:00 9.2 15 Nordeste 25 Nordeste 0 -- -- 50
2019-03-24 22:00:00 10.6 19 Nordeste 27 Nordeste 0 -- -- 43
2019-03-24 21:00:00 11.4 14 Nordeste 28 Nordeste 0 -- -- 39
2019-03-24 20:00:00 13.5 12 Nordeste 23 Nordeste 0 -- -- 32
2019-03-24 19:00:00 17.7 10 Este 22 Este 0 -- -- 27
2019-03-24 18:00:00 20.5 6 Este 15 Sudeste 0 -- -- 22
2019-03-24 17:00:00 19.5 8 Este 21 Este 0 -- -- 22
2019-03-24 16:00:00 19.9 11 Este 26 Este 0 -- -- 21
2019-03-24 15:00:00 19.1 17 Este 26 Este 0 -- -- 22
2019-03-24 14:00:00 19 10 Sudeste 24 Este 0 -- -- 21
2019-03-24 13:00:00 17.3 14 Sudeste 23 Este 0 -- -- 23
2019-03-24 12:00:00 17.3 10 Sudeste 17 Sudeste 0 -- -- 21
2019-03-24 11:00:00 16.7 3 Este 11 Este 0 -- -- 32
2019-03-24 10:00:00 11.1 4 Oeste 8 Oeste 0 -- -- 50
2019-03-24 09:00:00 5.6 0 Calma 4 Sudeste 0 -- -- 61
2019-03-24 08:00:00 -1.4 3 Este 6 Este 0 -- -- 82
2019-03-24 07:00:00 -3.2 3 Este 6 Nordeste 0 -- -- 87
2019-03-24 06:00:00 -2.6 2 Este 7 Este 0 -- -- 84
2019-03-24 05:00:00 -2.1 5 Este 8 Este 0 -- -- 84
2019-03-24 04:00:00 -1.2 3 Este 4 Este 0 -- -- 80
2019-03-24 03:00:00 1.3 5 Este 7 Este 0 -- -- 72
2019-03-24 02:00:00 1.7 3 Este 5 Nordeste 0 -- -- 69
2019-03-24 01:00:00 1.2 2 Sur 4 Sur 0 -- -- 71
2019-03-24 00:00:00 2.8 0 Calma 8 Este 0 -- -- 63
2019-03-23 23:00:00 6.3 4 Este 13 Sudeste 0 -- -- 52
2019-03-23 22:00:00 8.3 13 Este 17 Este 0 -- -- 46
2019-03-23 21:00:00 8.5 12 Este 18 Este 0 -- -- 48
2019-03-23 20:00:00 10.1 10 Este 22 Este 0 -- -- 44
2019-03-23 19:00:00 15.1 14 Este 26 Este 0 -- -- 35
2019-03-23 18:00:00 17.5 21 Este 35 Este 0 -- -- 31
2019-03-23 17:00:00 18.1 19 Este 34 Este 0 -- -- 29
2019-03-23 16:00:00 18.7 19 Este 33 Este 0 -- -- 26
2019-03-23 15:00:00 18.2 20 Este 33 Este 0 -- -- 27
2019-03-23 14:00:00 18 16 Nordeste 31 Nordeste 0 -- -- 32
2019-03-23 13:00:00 17 18 Este 34 Este 0 -- -- 34
2019-03-23 12:00:00 16.2 15 Este 28 Este 0 -- -- 36
2019-03-23 11:00:00 16.1 2 Norte 7 Oeste 0 -- -- 41
2019-03-23 10:00:00 9.8 4 Oeste 9 Oeste 0 -- -- 54
2019-03-23 09:00:00 5.2 0 Calma 6 Este 0 -- -- 65
2019-03-23 08:00:00 -1.6 4 Este 7 Este 0 -- -- 85
2019-03-23 07:00:00 -3.9 5 Este 6 Este 0 -- -- 88
2019-03-23 06:00:00 -3.5 3 Este 8 Este 0 -- -- 87
2019-03-23 05:00:00 -3.2 5 Este 6 Este 0 -- -- 85
2019-03-23 04:00:00 -2.5 4 Este 6 Este 0 -- -- 82
2019-03-23 03:00:00 -1.5 2 Sudeste 6 Este 0 -- -- 81
2019-03-23 02:00:00 -1.3 5 Este 9 Nordeste 0 -- -- 79
2019-03-23 01:00:00 -0.5 4 Este 5 Este 0 -- -- 75
2019-03-23 00:00:00 0.8 0 Calma 5 Nordeste 0 -- -- 71
2019-03-22 23:00:00 3 0 Calma 10 Este 0 -- -- 65
2019-03-22 22:00:00 6.2 9 Este 13 Este 0 -- -- 55
2019-03-22 21:00:00 6 10 Este 14 Este 0 -- -- 54
2019-03-22 20:00:00 7.7 6 Este 19 Este 0 -- -- 48
2019-03-22 19:00:00 13.3 13 Nordeste 24 Este 0 -- -- 35
2019-03-22 18:00:00 15.1 12 Sudeste 27 Este 0 -- -- 32
2019-03-22 17:00:00 15.6 17 Este 30 Este 0 -- -- 30
2019-03-22 16:00:00 16.2 12 Sudeste 28 Este 0 -- -- 32
2019-03-22 15:00:00 15.2 15 Este 28 Este 0 -- -- 31
2019-03-22 14:00:00 15 15 Este 27 Este 0 -- -- 30
2019-03-22 13:00:00 13.3 13 Este 24 Este 0 -- -- 32
2019-03-22 12:00:00 12.5 14 Sudeste 24 Este 0 -- -- 31
2019-03-22 11:00:00 13.1 6 Este 13 Nordeste 0 -- -- 31
2019-03-22 10:00:00 8.1 2 Oeste 7 Noroeste 0 -- -- 45
2019-03-22 09:00:00 2.3 0 Calma 6 Este 0 -- -- 57
2019-03-22 08:00:00 -4.8 3 Este 5 Este 0 -- -- 78
2019-03-22 07:00:00 -6.8 4 Este 4 Este 0 -- -- 81
2019-03-22 06:00:00 -6.3 3 Este 6 Este 0 -- -- 81
2019-03-22 05:00:00 -6.3 3 Este 6 Nordeste 0 -- -- 79
2019-03-22 04:00:00 -6.1 4 Este 5 Este 0 -- -- 77
2019-03-22 03:00:00 -5.4 5 Este 6 Este 0 -- -- 73
2019-03-22 02:00:00 -4 2 Sudeste 5 Sur 0 -- -- 69
2019-03-22 01:00:00 -2.7 3 Este 9 Nordeste 0 -- -- 62
2019-03-22 00:00:00 -1.3 5 Este 7 Este 0 -- -- 58
2019-03-21 23:00:00 -0.2 6 Nordeste 14 Sudeste 0 -- -- 54
2019-03-21 22:00:00 3.8 7 Este 15 Este 0 -- -- 44
2019-03-21 21:00:00 4.4 12 Este 19 Este 0 -- -- 42
2019-03-21 20:00:00 5.7 14 Este 21 Este 0 -- -- 38
2019-03-21 19:00:00 11.2 11 Este 21 Sudeste 0 -- -- 25
2019-03-21 18:00:00 13.6 9 Este 24 Este 0 -- -- 24
2019-03-21 17:00:00 14.1 12 Nordeste 23 Este 0 -- -- 25
2019-03-21 16:00:00 14.5 9 Nordeste 20 Este 0 -- -- 26
2019-03-21 15:00:00 13.6 10 Este 23 Este 0 -- -- 29
2019-03-21 14:00:00 12.8 5 Oeste 18 Nordeste 0 -- -- 28
2019-03-21 13:00:00 12 5 Este 15 Nordeste 0 -- -- 30
2019-03-21 12:00:00 10.7 5 Norte 17 Norte 0 -- -- 35
2019-03-21 11:00:00 9.2 8 Norte 16 Nordeste 0 -- -- 39
2019-03-21 10:00:00 6.9 5 Nordeste 10 Este 0 -- -- 52
2019-03-21 09:00:00 1 0 Calma 4 Este 0 -- -- 71
2019-03-21 08:00:00 -5.6 0 Calma 6 Este 0 -- -- 89
2019-03-21 07:00:00 -7 4 Este 8 Nordeste 0 -- -- 89
2019-03-21 06:00:00 -6.7 2 Este 5 Este 0 -- -- 89
2019-03-21 05:00:00 -5.3 0 Calma 6 Sur 0 -- -- 90
2019-03-21 04:00:00 -2.7 0 Calma 9 Sur 0 -- -- 79
2019-03-21 03:00:00 -0.2 5 Este 17 Nordeste 0 -- -- 74
2019-03-21 02:00:00 0.8 4 Nordeste 25 Nordeste 0 -- -- 69
2019-03-21 01:00:00 1.7 20 Nordeste 28 Norte 0 -- -- 66
2019-03-21 00:00:00 1.8 16 Nordeste 34 Nordeste 0 -- -- 66